sensor_id;sensor_type;location;lat;lon;timestamp;P1;durP1;ratioP1;P2;durP2;ratioP2
966;SDS011;56108;48.730;9.304;2022-12-18T00:01:35;80.05;;;42.28;;
966;SDS011;56108;48.730;9.304;2022-12-18T00:03:45;94.65;;;46.65;;
966;SDS011;56108;48.730;9.304;2022-12-18T00:05:53;101.95;;;48.58;;
966;SDS011;56108;48.730;9.304;2022-12-18T00:08:01;94.28;;;43.20;;
966;SDS011;56108;48.730;9.304;2022-12-18T00:10:12;120.35;;;49.22;;
966;SDS011;56108;48.730;9.304;2022-12-18T00:12:26;84.10;;;45.78;;
966;SDS011;56108;48.730;9.304;2022-12-18T00:14:34;80.60;;;45.70;;
966;SDS011;56108;48.730;9.304;2022-12-18T00:16:45;78.60;;;44.28;;
966;SDS011;56108;48.730;9.304;2022-12-18T00:18:55;91.38;;;45.38;;
966;SDS011;56108;48.730;9.304;2022-12-18T00:21:07;90.60;;;45.45;;
966;SDS011;56108;48.730;9.304;2022-12-18T00:23:17;92.22;;;47.63;;
966;SDS011;56108;48.730;9.304;2022-12-18T00:25:25;75.35;;;44.97;;
966;SDS011;56108;48.730;9.304;2022-12-18T00:27:36;94.45;;;47.72;;
966;SDS011;56108;48.730;9.304;2022-12-18T00:29:44;108.57;;;49.55;;
966;SDS011;56108;48.730;9.304;2022-12-18T00:31:52;71.65;;;42.20;;
966;SDS011;56108;48.730;9.304;2022-12-18T00:34:01;103.30;;;47.22;;
966;SDS011;56108;48.730;9.304;2022-12-18T00:36:10;90.78;;;46.40;;
966;SDS011;56108;48.730;9.304;2022-12-18T00:38:19;102.07;;;48.47;;
966;SDS011;56108;48.730;9.304;2022-12-18T00:40:31;85.35;;;44.13;;
966;SDS011;56108;48.730;9.304;2022-12-18T00:42:42;93.93;;;49.88;;
966;SDS011;56108;48.730;9.304;2022-12-18T00:45:03;79.15;;;43.42;;
966;SDS011;56108;48.730;9.304;2022-12-18T00:47:16;90.00;;;47.25;;
966;SDS011;56108;48.730;9.304;2022-12-18T00:49:24;92.00;;;48.08;;
966;SDS011;56108;48.730;9.304;2022-12-18T00:51:32;71.97;;;42.80;;
966;SDS011;56108;48.730;9.304;2022-12-18T00:53:41;77.03;;;43.88;;
966;SDS011;56108;48.730;9.304;2022-12-18T00:55:49;83.05;;;42.05;;
966;SDS011;56108;48.730;9.304;2022-12-18T00:57:59;91.60;;;46.67;;
966;SDS011;56108;48.730;9.304;2022-12-18T01:00:08;79.82;;;43.70;;
966;SDS011;56108;48.730;9.304;2022-12-18T01:02:18;82.57;;;44.65;;
966;SDS011;56108;48.730;9.304;2022-12-18T01:04:26;74.25;;;42.35;;
966;SDS011;56108;48.730;9.304;2022-12-18T01:06:35;86.90;;;43.67;;
966;SDS011;56108;48.730;9.304;2022-12-18T01:08:43;82.85;;;44.05;;
966;SDS011;56108;48.730;9.304;2022-12-18T01:10:52;80.45;;;43.47;;
966;SDS011;56108;48.730;9.304;2022-12-18T01:13:02;83.75;;;43.80;;
966;SDS011;56108;48.730;9.304;2022-12-18T01:15:12;72.65;;;39.58;;
966;SDS011;56108;48.730;9.304;2022-12-18T01:17:21;72.00;;;42.17;;
966;SDS011;56108;48.730;9.304;2022-12-18T01:19:30;74.75;;;41.83;;
966;SDS011;56108;48.730;9.304;2022-12-18T01:21:38;68.32;;;42.30;;
966;SDS011;56108;48.730;9.304;2022-12-18T01:23:46;67.80;;;40.95;;
966;SDS011;56108;48.730;9.304;2022-12-18T01:26:03;74.57;;;39.58;;
966;SDS011;56108;48.730;9.304;2022-12-18T01:28:15;73.90;;;42.15;;
966;SDS011;56108;48.730;9.304;2022-12-18T01:30:23;70.60;;;38.35;;
966;SDS011;56108;48.730;9.304;2022-12-18T01:32:31;75.70;;;40.65;;
966;SDS011;56108;48.730;9.304;2022-12-18T01:34:39;64.13;;;38.58;;
966;SDS011;56108;48.730;9.304;2022-12-18T01:36:47;59.60;;;37.38;;
966;SDS011;56108;48.730;9.304;2022-12-18T01:38:56;67.15;;;40.05;;
966;SDS011;56108;48.730;9.304;2022-12-18T01:41:07;68.40;;;42.28;;
966;SDS011;56108;48.730;9.304;2022-12-18T01:43:18;61.88;;;38.90;;
966;SDS011;56108;48.730;9.304;2022-12-18T01:45:26;75.35;;;39.70;;
966;SDS011;56108;48.730;9.304;2022-12-18T01:47:36;64.90;;;38.90;;
966;SDS011;56108;48.730;9.304;2022-12-18T01:49:49;63.05;;;37.30;;
966;SDS011;56108;48.730;9.304;2022-12-18T01:51:58;66.30;;;38.25;;
966;SDS011;56108;48.730;9.304;2022-12-18T01:54:06;57.33;;;35.35;;
966;SDS011;56108;48.730;9.304;2022-12-18T01:56:14;66.25;;;37.28;;
966;SDS011;56108;48.730;9.304;2022-12-18T01:58:27;67.90;;;38.40;;
966;SDS011;56108;48.730;9.304;2022-12-18T02:00:40;58.90;;;33.92;;
966;SDS011;56108;48.730;9.304;2022-12-18T02:02:49;73.65;;;38.85;;
966;SDS011;56108;48.730;9.304;2022-12-18T02:04:59;65.57;;;38.38;;
966;SDS011;56108;48.730;9.304;2022-12-18T02:07:10;65.70;;;37.88;;
966;SDS011;56108;48.730;9.304;2022-12-18T02:09:28;58.13;;;36.58;;
966;SDS011;56108;48.730;9.304;2022-12-18T02:11:57;56.40;;;35.72;;
966;SDS011;56108;48.730;9.304;2022-12-18T02:14:22;60.03;;;35.72;;
966;SDS011;56108;48.730;9.304;2022-12-18T02:16:52;56.88;;;34.85;;
966;SDS011;56108;48.730;9.304;2022-12-18T02:19:10;59.50;;;34.30;;
966;SDS011;56108;48.730;9.304;2022-12-18T02:21:35;58.40;;;36.17;;
966;SDS011;56108;48.730;9.304;2022-12-18T02:23:56;53.70;;;33.95;;
966;SDS011;56108;48.730;9.304;2022-12-18T02:26:23;55.55;;;34.92;;
966;SDS011;56108;48.730;9.304;2022-12-18T02:28:40;68.07;;;37.95;;
966;SDS011;56108;48.730;9.304;2022-12-18T02:30:50;57.67;;;36.30;;
966;SDS011;56108;48.730;9.304;2022-12-18T02:33:02;59.53;;;36.58;;
966;SDS011;56108;48.730;9.304;2022-12-18T02:35:16;57.45;;;35.80;;
966;SDS011;56108;48.730;9.304;2022-12-18T02:37:31;64.65;;;37.55;;
966;SDS011;56108;48.730;9.304;2022-12-18T02:39:43;59.15;;;35.95;;
966;SDS011;56108;48.730;9.304;2022-12-18T02:41:56;63.63;;;36.85;;
966;SDS011;56108;48.730;9.304;2022-12-18T02:44:07;59.05;;;36.05;;
966;SDS011;56108;48.730;9.304;2022-12-18T02:46:24;57.13;;;32.10;;
966;SDS011;56108;48.730;9.304;2022-12-18T02:48:39;64.90;;;35.80;;
966;SDS011;56108;48.730;9.304;2022-12-18T02:50:51;54.65;;;35.65;;
966;SDS011;56108;48.730;9.304;2022-12-18T02:53:10;62.28;;;36.97;;
966;SDS011;56108;48.730;9.304;2022-12-18T02:55:28;59.17;;;35.45;;
966;SDS011;56108;48.730;9.304;2022-12-18T02:57:55;59.80;;;34.85;;
966;SDS011;56108;48.730;9.304;2022-12-18T03:00:15;60.22;;;36.22;;
966;SDS011;56108;48.730;9.304;2022-12-18T03:02:29;63.95;;;39.80;;
966;SDS011;56108;48.730;9.304;2022-12-18T03:04:45;61.05;;;34.83;;
966;SDS011;56108;48.730;9.304;2022-12-18T03:06:59;58.70;;;35.00;;
966;SDS011;56108;48.730;9.304;2022-12-18T03:09:14;54.08;;;32.00;;
966;SDS011;56108;48.730;9.304;2022-12-18T03:11:25;55.20;;;31.70;;
966;SDS011;56108;48.730;9.304;2022-12-18T03:13:52;59.20;;;34.83;;
966;SDS011;56108;48.730;9.304;2022-12-18T03:16:05;55.47;;;36.20;;
966;SDS011;56108;48.730;9.304;2022-12-18T03:18:16;56.30;;;34.10;;
966;SDS011;56108;48.730;9.304;2022-12-18T03:20:29;52.05;;;32.63;;
966;SDS011;56108;48.730;9.304;2022-12-18T03:22:40;55.72;;;34.13;;
966;SDS011;56108;48.730;9.304;2022-12-18T03:24:52;60.03;;;34.17;;
966;SDS011;56108;48.730;9.304;2022-12-18T03:27:04;54.92;;;32.58;;
966;SDS011;56108;48.730;9.304;2022-12-18T03:29:21;66.55;;;33.97;;
966;SDS011;56108;48.730;9.304;2022-12-18T03:31:35;61.75;;;35.67;;
966;SDS011;56108;48.730;9.304;2022-12-18T03:33:51;61.90;;;33.78;;
966;SDS011;56108;48.730;9.304;2022-12-18T03:36:10;64.10;;;32.00;;
966;SDS011;56108;48.730;9.304;2022-12-18T03:38:18;62.22;;;32.15;;
966;SDS011;56108;48.730;9.304;2022-12-18T03:40:31;60.28;;;32.13;;
966;SDS011;56108;48.730;9.304;2022-12-18T03:42:48;60.75;;;34.13;;
966;SDS011;56108;48.730;9.304;2022-12-18T03:45:06;54.03;;;31.98;;
966;SDS011;56108;48.730;9.304;2022-12-18T03:47:21;57.95;;;32.45;;
966;SDS011;56108;48.730;9.304;2022-12-18T03:49:39;57.08;;;33.67;;
966;SDS011;56108;48.730;9.304;2022-12-18T03:51:59;59.33;;;34.38;;
966;SDS011;56108;48.730;9.304;2022-12-18T03:54:10;52.10;;;31.90;;
966;SDS011;56108;48.730;9.304;2022-12-18T03:56:29;52.35;;;32.67;;
966;SDS011;56108;48.730;9.304;2022-12-18T03:58:42;60.38;;;32.17;;
966;SDS011;56108;48.730;9.304;2022-12-18T04:01:05;58.72;;;34.53;;
966;SDS011;56108;48.730;9.304;2022-12-18T04:03:20;56.88;;;32.90;;
966;SDS011;56108;48.730;9.304;2022-12-18T04:05:30;58.50;;;30.10;;
966;SDS011;56108;48.730;9.304;2022-12-18T04:07:44;55.72;;;33.33;;
966;SDS011;56108;48.730;9.304;2022-12-18T04:09:56;66.18;;;34.50;;
966;SDS011;56108;48.730;9.304;2022-12-18T04:12:08;54.03;;;31.75;;
966;SDS011;56108;48.730;9.304;2022-12-18T04:14:17;50.35;;;29.73;;
966;SDS011;56108;48.730;9.304;2022-12-18T04:16:32;54.75;;;30.92;;
966;SDS011;56108;48.730;9.304;2022-12-18T04:18:42;41.90;;;26.42;;
966;SDS011;56108;48.730;9.304;2022-12-18T04:20:51;51.10;;;31.30;;
966;SDS011;56108;48.730;9.304;2022-12-18T04:23:00;53.40;;;30.38;;
966;SDS011;56108;48.730;9.304;2022-12-18T04:25:08;48.55;;;28.02;;
966;SDS011;56108;48.730;9.304;2022-12-18T04:27:31;52.00;;;31.75;;
966;SDS011;56108;48.730;9.304;2022-12-18T04:29:41;53.70;;;32.10;;
966;SDS011;56108;48.730;9.304;2022-12-18T04:31:52;45.30;;;30.02;;
966;SDS011;56108;48.730;9.304;2022-12-18T04:34:02;41.50;;;25.30;;
966;SDS011;56108;48.730;9.304;2022-12-18T04:36:21;52.17;;;30.88;;
966;SDS011;56108;48.730;9.304;2022-12-18T04:38:33;49.65;;;29.55;;
966;SDS011;56108;48.730;9.304;2022-12-18T04:40:45;60.25;;;34.53;;
966;SDS011;56108;48.730;9.304;2022-12-18T04:43:02;46.75;;;33.25;;
966;SDS011;56108;48.730;9.304;2022-12-18T04:45:10;58.70;;;41.08;;
966;SDS011;56108;48.730;9.304;2022-12-18T04:47:21;45.15;;;31.95;;
966;SDS011;56108;48.730;9.304;2022-12-18T04:49:29;54.53;;;35.15;;
966;SDS011;56108;48.730;9.304;2022-12-18T04:51:37;59.53;;;35.03;;
966;SDS011;56108;48.730;9.304;2022-12-18T04:53:45;52.40;;;34.45;;
966;SDS011;56108;48.730;9.304;2022-12-18T04:56:01;56.58;;;37.35;;
966;SDS011;56108;48.730;9.304;2022-12-18T04:58:10;38.88;;;26.63;;
966;SDS011;56108;48.730;9.304;2022-12-18T05:00:18;52.03;;;29.95;;
966;SDS011;56108;48.730;9.304;2022-12-18T05:02:29;69.78;;;37.85;;
966;SDS011;56108;48.730;9.304;2022-12-18T05:04:37;49.20;;;31.15;;
966;SDS011;56108;48.730;9.304;2022-12-18T05:06:45;45.92;;;28.45;;
966;SDS011;56108;48.730;9.304;2022-12-18T05:08:53;44.15;;;28.40;;
966;SDS011;56108;48.730;9.304;2022-12-18T05:11:01;44.60;;;28.60;;
966;SDS011;56108;48.730;9.304;2022-12-18T05:13:12;41.63;;;27.20;;
966;SDS011;56108;48.730;9.304;2022-12-18T05:15:20;43.47;;;26.80;;
966;SDS011;56108;48.730;9.304;2022-12-18T05:17:30;46.15;;;27.40;;
966;SDS011;56108;48.730;9.304;2022-12-18T05:19:38;37.80;;;25.42;;
966;SDS011;56108;48.730;9.304;2022-12-18T05:21:48;44.55;;;26.70;;
966;SDS011;56108;48.730;9.304;2022-12-18T05:23:57;42.15;;;26.17;;
966;SDS011;56108;48.730;9.304;2022-12-18T05:26:05;39.45;;;26.60;;
966;SDS011;56108;48.730;9.304;2022-12-18T05:28:14;38.97;;;26.05;;
966;SDS011;56108;48.730;9.304;2022-12-18T05:30:22;38.92;;;25.70;;
966;SDS011;56108;48.730;9.304;2022-12-18T05:32:32;41.05;;;26.45;;
966;SDS011;56108;48.730;9.304;2022-12-18T05:34:40;46.30;;;26.65;;
966;SDS011;56108;48.730;9.304;2022-12-18T05:36:48;47.42;;;27.95;;
966;SDS011;56108;48.730;9.304;2022-12-18T05:38:57;44.53;;;27.05;;
966;SDS011;56108;48.730;9.304;2022-12-18T05:41:05;47.60;;;28.15;;
966;SDS011;56108;48.730;9.304;2022-12-18T05:43:24;46.03;;;27.23;;
966;SDS011;56108;48.730;9.304;2022-12-18T05:45:48;46.35;;;26.98;;
966;SDS011;56108;48.730;9.304;2022-12-18T05:48:01;41.92;;;26.95;;
966;SDS011;56108;48.730;9.304;2022-12-18T05:50:09;41.63;;;28.83;;
966;SDS011;56108;48.730;9.304;2022-12-18T05:52:17;46.67;;;28.98;;
966;SDS011;56108;48.730;9.304;2022-12-18T05:54:26;38.00;;;25.90;;
966;SDS011;56108;48.730;9.304;2022-12-18T05:56:35;48.95;;;28.25;;
966;SDS011;56108;48.730;9.304;2022-12-18T05:58:51;43.35;;;30.58;;
966;SDS011;56108;48.730;9.304;2022-12-18T06:01:05;50.00;;;29.02;;
966;SDS011;56108;48.730;9.304;2022-12-18T06:03:18;39.60;;;28.30;;
966;SDS011;56108;48.730;9.304;2022-12-18T06:05:26;43.53;;;29.80;;
966;SDS011;56108;48.730;9.304;2022-12-18T06:07:35;49.55;;;30.45;;
966;SDS011;56108;48.730;9.304;2022-12-18T06:09:43;45.42;;;29.35;;
966;SDS011;56108;48.730;9.304;2022-12-18T06:11:51;49.50;;;28.77;;
966;SDS011;56108;48.730;9.304;2022-12-18T06:13:59;44.83;;;26.63;;
966;SDS011;56108;48.730;9.304;2022-12-18T06:16:07;42.10;;;26.85;;
966;SDS011;56108;48.730;9.304;2022-12-18T06:18:21;42.65;;;26.45;;
966;SDS011;56108;48.730;9.304;2022-12-18T06:20:29;46.80;;;27.33;;
966;SDS011;56108;48.730;9.304;2022-12-18T06:22:40;40.20;;;25.70;;
966;SDS011;56108;48.730;9.304;2022-12-18T06:24:48;41.75;;;24.10;;
966;SDS011;56108;48.730;9.304;2022-12-18T06:26:56;42.15;;;28.58;;
966;SDS011;56108;48.730;9.304;2022-12-18T06:29:04;41.70;;;28.77;;
966;SDS011;56108;48.730;9.304;2022-12-18T06:31:12;40.58;;;26.45;;
966;SDS011;56108;48.730;9.304;2022-12-18T06:33:25;39.83;;;27.58;;
966;SDS011;56108;48.730;9.304;2022-12-18T06:35:34;41.85;;;25.38;;
966;SDS011;56108;48.730;9.304;2022-12-18T06:37:42;45.85;;;26.80;;
966;SDS011;56108;48.730;9.304;2022-12-18T06:39:50;45.83;;;28.38;;
966;SDS011;56108;48.730;9.304;2022-12-18T06:41:58;49.33;;;29.58;;
966;SDS011;56108;48.730;9.304;2022-12-18T06:44:06;44.83;;;29.58;;
966;SDS011;56108;48.730;9.304;2022-12-18T06:46:14;42.10;;;27.55;;
966;SDS011;56108;48.730;9.304;2022-12-18T06:48:25;47.88;;;29.45;;
966;SDS011;56108;48.730;9.304;2022-12-18T06:50:33;40.80;;;27.25;;
966;SDS011;56108;48.730;9.304;2022-12-18T06:52:44;49.22;;;30.08;;
966;SDS011;56108;48.730;9.304;2022-12-18T06:54:55;45.72;;;28.67;;
966;SDS011;56108;48.730;9.304;2022-12-18T06:57:03;45.17;;;28.73;;
966;SDS011;56108;48.730;9.304;2022-12-18T06:59:11;40.47;;;26.52;;
966;SDS011;56108;48.730;9.304;2022-12-18T07:01:20;41.95;;;30.08;;
966;SDS011;56108;48.730;9.304;2022-12-18T07:03:31;55.53;;;28.33;;
966;SDS011;56108;48.730;9.304;2022-12-18T07:05:39;41.90;;;26.52;;
966;SDS011;56108;48.730;9.304;2022-12-18T07:07:48;45.17;;;27.17;;
966;SDS011;56108;48.730;9.304;2022-12-18T07:09:55;40.45;;;26.88;;
966;SDS011;56108;48.730;9.304;2022-12-18T07:12:05;39.63;;;25.25;;
966;SDS011;56108;48.730;9.304;2022-12-18T07:14:13;43.95;;;26.63;;
966;SDS011;56108;48.730;9.304;2022-12-18T07:16:21;47.35;;;27.45;;
966;SDS011;56108;48.730;9.304;2022-12-18T07:18:32;44.13;;;27.50;;
966;SDS011;56108;48.730;9.304;2022-12-18T07:20:42;46.90;;;28.17;;
966;SDS011;56108;48.730;9.304;2022-12-18T07:22:51;45.67;;;27.95;;
966;SDS011;56108;48.730;9.304;2022-12-18T07:24:59;39.80;;;26.00;;
966;SDS011;56108;48.730;9.304;2022-12-18T07:27:07;44.28;;;27.60;;
966;SDS011;56108;48.730;9.304;2022-12-18T07:29:15;42.20;;;27.38;;
966;SDS011;56108;48.730;9.304;2022-12-18T07:31:24;41.78;;;27.17;;
966;SDS011;56108;48.730;9.304;2022-12-18T07:33:35;45.65;;;28.67;;
966;SDS011;56108;48.730;9.304;2022-12-18T07:35:44;40.58;;;28.60;;
966;SDS011;56108;48.730;9.304;2022-12-18T07:37:52;50.28;;;27.02;;
966;SDS011;56108;48.730;9.304;2022-12-18T07:40:08;44.35;;;29.38;;
966;SDS011;56108;48.730;9.304;2022-12-18T07:42:18;45.55;;;27.27;;
966;SDS011;56108;48.730;9.304;2022-12-18T07:44:38;71.70;;;40.00;;
966;SDS011;56108;48.730;9.304;2022-12-18T07:46:45;69.88;;;37.53;;
966;SDS011;56108;48.730;9.304;2022-12-18T07:48:56;52.78;;;33.03;;
966;SDS011;56108;48.730;9.304;2022-12-18T07:51:05;57.88;;;35.92;;
966;SDS011;56108;48.730;9.304;2022-12-18T07:53:16;80.10;;;51.50;;
966;SDS011;56108;48.730;9.304;2022-12-18T07:55:24;82.57;;;51.10;;
966;SDS011;56108;48.730;9.304;2022-12-18T07:57:33;84.82;;;51.83;;
966;SDS011;56108;48.730;9.304;2022-12-18T08:00:01;65.72;;;42.10;;
966;SDS011;56108;48.730;9.304;2022-12-18T08:02:15;65.03;;;39.85;;
966;SDS011;56108;48.730;9.304;2022-12-18T08:04:28;63.80;;;37.85;;
966;SDS011;56108;48.730;9.304;2022-12-18T08:06:41;60.72;;;37.10;;
966;SDS011;56108;48.730;9.304;2022-12-18T08:08:52;46.47;;;33.25;;
966;SDS011;56108;48.730;9.304;2022-12-18T08:11:01;55.35;;;35.38;;
966;SDS011;56108;48.730;9.304;2022-12-18T08:13:08;45.08;;;29.38;;
966;SDS011;56108;48.730;9.304;2022-12-18T08:15:17;51.05;;;31.80;;
966;SDS011;56108;48.730;9.304;2022-12-18T08:17:30;50.33;;;30.63;;
966;SDS011;56108;48.730;9.304;2022-12-18T08:19:41;47.35;;;29.67;;
966;SDS011;56108;48.730;9.304;2022-12-18T08:21:50;48.33;;;30.15;;
966;SDS011;56108;48.730;9.304;2022-12-18T08:23:59;50.53;;;31.58;;
966;SDS011;56108;48.730;9.304;2022-12-18T08:26:08;60.35;;;33.17;;
966;SDS011;56108;48.730;9.304;2022-12-18T08:28:17;50.90;;;34.20;;
966;SDS011;56108;48.730;9.304;2022-12-18T08:30:25;47.40;;;31.05;;
966;SDS011;56108;48.730;9.304;2022-12-18T08:32:33;52.08;;;33.22;;
966;SDS011;56108;48.730;9.304;2022-12-18T08:34:45;51.97;;;32.95;;
966;SDS011;56108;48.730;9.304;2022-12-18T08:36:53;48.78;;;32.55;;
966;SDS011;56108;48.730;9.304;2022-12-18T08:39:02;47.50;;;31.15;;
966;SDS011;56108;48.730;9.304;2022-12-18T08:41:11;47.38;;;31.60;;
966;SDS011;56108;48.730;9.304;2022-12-18T08:43:20;49.15;;;31.27;;
966;SDS011;56108;48.730;9.304;2022-12-18T08:45:41;46.40;;;30.17;;
966;SDS011;56108;48.730;9.304;2022-12-18T08:47:49;60.38;;;32.97;;
966;SDS011;56108;48.730;9.304;2022-12-18T08:50:00;51.40;;;31.63;;
966;SDS011;56108;48.730;9.304;2022-12-18T08:52:09;51.28;;;32.90;;
966;SDS011;56108;48.730;9.304;2022-12-18T08:54:20;46.08;;;31.15;;
966;SDS011;56108;48.730;9.304;2022-12-18T08:56:31;52.67;;;34.30;;
966;SDS011;56108;48.730;9.304;2022-12-18T08:58:40;53.15;;;33.72;;
966;SDS011;56108;48.730;9.304;2022-12-18T09:00:48;49.63;;;33.25;;
966;SDS011;56108;48.730;9.304;2022-12-18T09:02:56;47.92;;;33.80;;
966;SDS011;56108;48.730;9.304;2022-12-18T09:05:07;60.17;;;33.67;;
966;SDS011;56108;48.730;9.304;2022-12-18T09:07:15;58.58;;;37.70;;
966;SDS011;56108;48.730;9.304;2022-12-18T09:09:23;61.58;;;38.83;;
966;SDS011;56108;48.730;9.304;2022-12-18T09:11:32;52.42;;;33.40;;
966;SDS011;56108;48.730;9.304;2022-12-18T09:13:40;54.08;;;35.55;;
966;SDS011;56108;48.730;9.304;2022-12-18T09:15:50;52.45;;;35.17;;
966;SDS011;56108;48.730;9.304;2022-12-18T09:17:58;54.30;;;35.65;;
966;SDS011;56108;48.730;9.304;2022-12-18T09:20:10;55.60;;;35.10;;
966;SDS011;56108;48.730;9.304;2022-12-18T09:22:18;58.58;;;38.92;;
966;SDS011;56108;48.730;9.304;2022-12-18T09:24:35;56.65;;;39.13;;
966;SDS011;56108;48.730;9.304;2022-12-18T09:27:06;60.70;;;40.35;;
966;SDS011;56108;48.730;9.304;2022-12-18T09:29:15;63.42;;;42.95;;
966;SDS011;56108;48.730;9.304;2022-12-18T09:31:25;64.25;;;41.30;;
966;SDS011;56108;48.730;9.304;2022-12-18T09:33:33;52.17;;;35.72;;
966;SDS011;56108;48.730;9.304;2022-12-18T09:35:44;45.55;;;31.23;;
966;SDS011;56108;48.730;9.304;2022-12-18T09:37:53;43.60;;;32.35;;
966;SDS011;56108;48.730;9.304;2022-12-18T09:40:02;51.10;;;35.60;;
966;SDS011;56108;48.730;9.304;2022-12-18T09:42:12;55.67;;;35.20;;
966;SDS011;56108;48.730;9.304;2022-12-18T09:44:27;54.30;;;34.47;;
966;SDS011;56108;48.730;9.304;2022-12-18T09:46:45;50.90;;;34.55;;
966;SDS011;56108;48.730;9.304;2022-12-18T09:48:59;45.67;;;30.95;;
966;SDS011;56108;48.730;9.304;2022-12-18T09:51:13;44.63;;;30.23;;
966;SDS011;56108;48.730;9.304;2022-12-18T09:53:24;39.22;;;29.20;;
966;SDS011;56108;48.730;9.304;2022-12-18T09:55:36;47.53;;;32.00;;
966;SDS011;56108;48.730;9.304;2022-12-18T09:57:49;49.92;;;31.95;;
966;SDS011;56108;48.730;9.304;2022-12-18T10:00:03;40.10;;;29.10;;
966;SDS011;56108;48.730;9.304;2022-12-18T10:02:19;40.38;;;30.02;;
966;SDS011;56108;48.730;9.304;2022-12-18T10:04:29;44.65;;;29.80;;
966;SDS011;56108;48.730;9.304;2022-12-18T10:06:45;47.95;;;31.38;;
966;SDS011;56108;48.730;9.304;2022-12-18T10:08:58;46.25;;;31.42;;
966;SDS011;56108;48.730;9.304;2022-12-18T10:13:49;53.92;;;34.58;;
966;SDS011;56108;48.730;9.304;2022-12-18T10:16:07;47.17;;;32.20;;
966;SDS011;56108;48.730;9.304;2022-12-18T10:18:23;47.47;;;31.58;;
966;SDS011;56108;48.730;9.304;2022-12-18T10:20:44;47.10;;;31.75;;
966;SDS011;56108;48.730;9.304;2022-12-18T10:22:59;48.92;;;29.10;;
966;SDS011;56108;48.730;9.304;2022-12-18T10:25:20;43.30;;;29.95;;
966;SDS011;56108;48.730;9.304;2022-12-18T10:27:31;47.10;;;29.90;;
966;SDS011;56108;48.730;9.304;2022-12-18T10:29:39;42.40;;;28.92;;
966;SDS011;56108;48.730;9.304;2022-12-18T10:31:48;43.55;;;30.60;;
966;SDS011;56108;48.730;9.304;2022-12-18T10:33:56;47.53;;;29.10;;
966;SDS011;56108;48.730;9.304;2022-12-18T10:36:04;54.40;;;32.75;;
966;SDS011;56108;48.730;9.304;2022-12-18T10:38:25;42.90;;;29.85;;
966;SDS011;56108;48.730;9.304;2022-12-18T10:40:47;44.55;;;29.90;;
966;SDS011;56108;48.730;9.304;2022-12-18T10:43:04;47.22;;;30.80;;
966;SDS011;56108;48.730;9.304;2022-12-18T10:45:17;42.40;;;28.63;;
966;SDS011;56108;48.730;9.304;2022-12-18T10:47:25;46.40;;;29.60;;
966;SDS011;56108;48.730;9.304;2022-12-18T10:49:34;48.33;;;30.33;;
966;SDS011;56108;48.730;9.304;2022-12-18T10:51:42;52.38;;;31.48;;
966;SDS011;56108;48.730;9.304;2022-12-18T10:53:54;47.03;;;32.03;;
966;SDS011;56108;48.730;9.304;2022-12-18T10:56:07;47.17;;;30.50;;
966;SDS011;56108;48.730;9.304;2022-12-18T10:58:21;46.88;;;32.30;;
966;SDS011;56108;48.730;9.304;2022-12-18T11:00:33;49.80;;;35.03;;
966;SDS011;56108;48.730;9.304;2022-12-18T11:02:41;48.00;;;31.05;;
966;SDS011;56108;48.730;9.304;2022-12-18T11:04:50;48.00;;;30.38;;
966;SDS011;56108;48.730;9.304;2022-12-18T11:07:00;48.92;;;30.38;;
966;SDS011;56108;48.730;9.304;2022-12-18T11:09:18;45.05;;;31.00;;
966;SDS011;56108;48.730;9.304;2022-12-18T11:11:28;46.28;;;32.75;;
966;SDS011;56108;48.730;9.304;2022-12-18T11:13:37;48.35;;;30.10;;
966;SDS011;56108;48.730;9.304;2022-12-18T11:15:45;48.92;;;31.00;;
966;SDS011;56108;48.730;9.304;2022-12-18T11:17:54;42.45;;;31.00;;
966;SDS011;56108;48.730;9.304;2022-12-18T11:20:05;48.28;;;32.03;;
966;SDS011;56108;48.730;9.304;2022-12-18T11:22:27;44.08;;;33.10;;
966;SDS011;56108;48.730;9.304;2022-12-18T11:24:39;47.95;;;31.40;;
966;SDS011;56108;48.730;9.304;2022-12-18T11:27:01;45.95;;;31.67;;
966;SDS011;56108;48.730;9.304;2022-12-18T11:29:16;50.85;;;34.13;;
966;SDS011;56108;48.730;9.304;2022-12-18T11:31:26;46.88;;;32.40;;
966;SDS011;56108;48.730;9.304;2022-12-18T11:33:36;50.40;;;34.28;;
966;SDS011;56108;48.730;9.304;2022-12-18T11:36:05;50.63;;;34.38;;
966;SDS011;56108;48.730;9.304;2022-12-18T11:38:21;51.83;;;33.35;;
966;SDS011;56108;48.730;9.304;2022-12-18T11:40:36;50.15;;;34.50;;
966;SDS011;56108;48.730;9.304;2022-12-18T11:42:50;55.83;;;35.85;;
966;SDS011;56108;48.730;9.304;2022-12-18T11:45:21;46.63;;;32.40;;
966;SDS011;56108;48.730;9.304;2022-12-18T11:47:37;51.38;;;31.40;;
966;SDS011;56108;48.730;9.304;2022-12-18T11:49:51;47.58;;;32.05;;
966;SDS011;56108;48.730;9.304;2022-12-18T11:52:00;52.03;;;32.53;;
966;SDS011;56108;48.730;9.304;2022-12-18T11:54:14;49.13;;;31.10;;
966;SDS011;56108;48.730;9.304;2022-12-18T11:56:29;48.38;;;31.95;;
966;SDS011;56108;48.730;9.304;2022-12-18T11:58:53;49.38;;;34.53;;
966;SDS011;56108;48.730;9.304;2022-12-18T12:01:12;50.70;;;32.67;;
966;SDS011;56108;48.730;9.304;2022-12-18T12:03:38;49.58;;;31.90;;
966;SDS011;56108;48.730;9.304;2022-12-18T12:06:00;47.50;;;30.83;;
966;SDS011;56108;48.730;9.304;2022-12-18T12:08:20;47.35;;;31.95;;
966;SDS011;56108;48.730;9.304;2022-12-18T12:10:42;40.90;;;29.88;;
966;SDS011;56108;48.730;9.304;2022-12-18T12:13:06;47.72;;;30.60;;
966;SDS011;56108;48.730;9.304;2022-12-18T12:15:28;47.20;;;32.70;;
966;SDS011;56108;48.730;9.304;2022-12-18T12:17:49;45.70;;;31.75;;
966;SDS011;56108;48.730;9.304;2022-12-18T12:20:02;42.83;;;29.85;;
966;SDS011;56108;48.730;9.304;2022-12-18T12:22:21;47.33;;;32.10;;
966;SDS011;56108;48.730;9.304;2022-12-18T12:24:37;43.72;;;28.77;;
966;SDS011;56108;48.730;9.304;2022-12-18T12:27:00;44.55;;;29.73;;
966;SDS011;56108;48.730;9.304;2022-12-18T12:29:23;44.88;;;29.77;;
966;SDS011;56108;48.730;9.304;2022-12-18T12:31:45;39.53;;;29.48;;
966;SDS011;56108;48.730;9.304;2022-12-18T12:34:07;47.08;;;29.23;;
966;SDS011;56108;48.730;9.304;2022-12-18T12:36:25;45.55;;;30.15;;
966;SDS011;56108;48.730;9.304;2022-12-18T12:38:46;48.42;;;30.83;;
966;SDS011;56108;48.730;9.304;2022-12-18T12:41:02;47.85;;;29.00;;
966;SDS011;56108;48.730;9.304;2022-12-18T12:43:35;44.92;;;29.13;;
966;SDS011;56108;48.730;9.304;2022-12-18T12:45:58;44.55;;;28.33;;
966;SDS011;56108;48.730;9.304;2022-12-18T12:48:14;39.03;;;28.23;;
966;SDS011;56108;48.730;9.304;2022-12-18T12:50:28;43.70;;;29.63;;
966;SDS011;56108;48.730;9.304;2022-12-18T12:52:42;43.28;;;29.15;;
966;SDS011;56108;48.730;9.304;2022-12-18T12:54:53;42.33;;;27.85;;
966;SDS011;56108;48.730;9.304;2022-12-18T12:57:02;40.58;;;28.90;;
966;SDS011;56108;48.730;9.304;2022-12-18T12:59:22;42.85;;;28.00;;
966;SDS011;56108;48.730;9.304;2022-12-18T13:01:48;42.40;;;28.88;;
966;SDS011;56108;48.730;9.304;2022-12-18T13:04:06;41.97;;;29.00;;
966;SDS011;56108;48.730;9.304;2022-12-18T13:06:25;49.88;;;35.28;;
966;SDS011;56108;48.730;9.304;2022-12-18T13:08:52;54.88;;;36.90;;
966;SDS011;56108;48.730;9.304;2022-12-18T13:11:02;60.53;;;37.83;;
966;SDS011;56108;48.730;9.304;2022-12-18T13:13:23;56.22;;;39.90;;
966;SDS011;56108;48.730;9.304;2022-12-18T13:15:33;61.13;;;41.78;;
966;SDS011;56108;48.730;9.304;2022-12-18T13:17:48;52.92;;;37.22;;
966;SDS011;56108;48.730;9.304;2022-12-18T13:20:03;45.35;;;32.33;;
966;SDS011;56108;48.730;9.304;2022-12-18T13:22:21;57.35;;;36.13;;